Time;durP1;ratioP1;P1;durP2;ratioP2;P2;SDS_P1;SDS_P2;PMS_P1;PMS_P2;Temp;Humidity;BMP_temperature;BMP_pressure;BME280_temperature;BME280_humidity;BME280_pressure;Samples;Min_cycle;Max_cycle;Signal;HPM_P1;HPM_P2
2022/05/08 00:01:39;;;;;;;2.78;1.10;;;15.70;99.90;;;;;;4993487;28;20403;-76
2022/05/08 00:04:07;;;;;;;1.15;0.70;;;15.80;99.90;;;;;;4994368;28;20498;-75
2022/05/08 00:06:34;;;;;;;2.97;0.80;;;15.80;99.90;;;;;;4994258;28;20031;-75
2022/05/08 00:09:01;;;;;;;2.42;0.70;;;15.90;99.90;;;;;;4994576;28;20047;-75
2022/05/08 00:11:29;;;;;;;2.08;0.60;;;16.00;99.90;;;;;;4994281;28;20026;-74
2022/05/08 00:13:56;;;;;;;4.75;0.77;;;16.00;99.90;;;;;;4993040;28;20497;-73
2022/05/08 00:16:24;;;;;;;2.55;0.80;;;16.10;99.90;;;;;;4992915;28;20058;-75
2022/05/08 00:18:51;;;;;;;2.65;0.98;;;16.10;99.90;;;;;;4994108;28;20486;-74
2022/05/08 00:21:18;;;;;;;1.45;0.80;;;16.10;99.90;;;;;;4992822;28;20039;-75
2022/05/08 00:23:46;;;;;;;3.17;1.10;;;16.20;99.90;;;;;;4994462;28;20088;-73
2022/05/08 00:26:13;;;;;;;1.67;0.60;;;16.30;99.90;;;;;;4994523;28;20023;-74
2022/05/08 00:28:41;;;;;;;2.22;1.25;;;16.40;99.90;;;;;;4994019;28;20084;-74
2022/05/08 00:31:11;;;;;;;1.00;0.70;;;16.30;99.90;;;;;;4994012;28;20505;-74
2022/05/08 00:33:39;;;;;;;;;;;16.40;99.90;;;;;;4993178;28;20030;-73
2022/05/08 00:36:06;;;;;;;1.60;1.00;;;16.50;99.90;;;;;;4991815;28;19906;-74
2022/05/08 00:38:34;;;;;;;1.92;0.80;;;16.50;99.90;;;;;;4993897;28;20076;-73
2022/05/08 00:41:01;;;;;;;2.13;0.90;;;16.50;99.90;;;;;;4993779;28;20506;-73
2022/05/08 00:43:38;;;;;;;4.32;0.93;;;16.50;99.90;;;;;;4993854;28;20028;-73
2022/05/08 00:46:07;;;;;;;2.40;1.17;;;16.70;99.90;;;;;;4993836;28;20505;-73
2022/05/08 00:48:35;;;;;;;2.35;0.80;;;16.70;99.90;;;;;;4992377;28;20119;-73
2022/05/08 00:51:08;;;;;;;1.73;1.08;;;16.80;99.90;;;;;;4993491;28;20450;-72
2022/05/08 00:53:41;;;;;;;3.55;0.98;;;16.90;99.90;;;;;;4993748;28;20022;-72
2022/05/08 00:56:10;;;;;;;1.55;0.95;;;17.10;99.90;;;;;;4993898;28;20109;-73
2022/05/08 00:58:40;;;;;;;4.35;1.38;;;17.00;99.90;;;;;;4992275;28;20026;-73
2022/05/08 01:01:13;;;;;;;2.25;0.82;;;17.10;99.90;;;;;;4992385;28;20396;-73
2022/05/08 01:03:41;;;;;;;1.27;0.60;;;17.20;99.90;;;;;;4993619;28;20033;-74
2022/05/08 01:06:11;;;;;;;3.40;0.85;;;17.40;99.90;;;;;;4993294;28;20038;-73
2022/05/08 01:08:40;;;;;;;2.38;1.10;;;17.60;99.90;;;;;;4993796;28;20034;-73
2022/05/08 01:11:09;;;;;;;2.80;0.80;;;17.40;99.90;;;;;;4993730;28;20034;-73
2022/05/08 01:13:37;;;;;;;3.28;1.25;;;17.40;99.90;;;;;;4992417;28;20023;-73
2022/05/08 01:16:12;;;;;;;1.77;0.68;;;17.60;99.90;;;;;;4993769;28;20027;-73
2022/05/08 01:18:40;;;;;;;2.63;0.90;;;17.70;99.90;;;;;;4992183;28;20234;-74
2022/05/08 01:21:13;;;;;;;1.63;0.68;;;17.70;99.90;;;;;;4993661;28;20077;-74
2022/05/08 01:23:43;;;;;;;2.45;0.82;;;17.90;99.90;;;;;;4993551;28;20081;-74
2022/05/08 01:26:10;;;;;;;1.63;0.77;;;18.00;99.90;;;;;;4992268;28;20026;-74
2022/05/08 01:28:38;;;;;;;3.05;0.90;;;18.00;99.90;;;;;;4993382;28;20026;-74
2022/05/08 01:31:05;;;;;;;1.58;0.40;;;18.20;99.90;;;;;;4993819;28;20495;-75
2022/05/08 01:33:33;;;;;;;2.55;0.70;;;18.30;99.90;;;;;;4993284;28;20026;-74
2022/05/08 01:36:01;;;;;;;1.08;0.40;;;18.30;99.90;;;;;;4993341;28;20026;-74
2022/05/08 01:38:28;;;;;;;1.40;0.60;;;18.40;99.90;;;;;;4991931;28;20027;-75
2022/05/08 01:40:57;;;;;;;2.97;0.60;;;18.50;99.90;;;;;;4992103;28;20023;-74
2022/05/08 01:43:24;;;;;;;1.60;0.40;;;18.60;99.90;;;;;;4993472;28;20022;-74
2022/05/08 01:45:54;;;;;;;4.70;0.60;;;18.50;99.90;;;;;;4992276;28;20026;-77
2022/05/08 01:48:27;;;;;;;1.88;0.60;;;18.60;99.90;;;;;;4996816;28;20029;-75
2022/05/08 01:50:57;;;;;;;2.85;0.50;;;19.00;99.90;;;;;;4995774;28;20026;-75
2022/05/08 01:53:31;;;;;;;1.85;0.50;;;19.10;99.90;;;;;;4997239;28;20022;-75
2022/05/08 01:56:00;;;;;;;0.68;0.38;;;19.00;99.90;;;;;;4980025;28;20514;-76
2022/05/08 01:58:29;;;;;;;1.05;0.50;;;19.10;99.90;;;;;;4996991;28;20479;-76
2022/05/08 02:00:59;;;;;;;2.58;0.60;;;19.10;99.90;;;;;;4995738;28;20343;-75
2022/05/08 02:03:27;;;;;;;3.30;0.63;;;19.20;99.90;;;;;;4997065;28;20023;-75
2022/05/08 02:05:54;;;;;;;1.58;0.47;;;19.30;99.90;;;;;;4995174;28;20514;-73
2022/05/08 02:08:22;;;;;;;2.35;0.65;;;19.40;99.90;;;;;;4995375;28;20030;-74
2022/05/08 02:10:49;;;;;;;1.67;0.70;;;19.30;99.90;;;;;;4995163;28;20070;-73
2022/05/08 02:13:16;;;;;;;1.55;0.55;;;19.30;99.90;;;;;;4996388;28;20415;-73
2022/05/08 02:15:44;;;;;;;1.55;0.50;;;19.30;99.90;;;;;;4995083;28;20027;-73
2022/05/08 02:18:11;;;;;;;1.95;0.40;;;19.30;99.90;;;;;;4995322;28;20038;-73
2022/05/08 02:20:39;;;;;;;0.88;0.50;;;19.30;99.90;;;;;;4996288;28;20383;-73
2022/05/08 02:23:07;;;;;;;2.72;0.65;;;19.60;99.90;;;;;;4994916;28;20026;-72
2022/05/08 02:25:38;;;;;;;2.72;0.70;;;19.70;99.90;;;;;;4996493;28;20023;-75
2022/05/08 02:28:06;;;;;;;3.90;0.77;;;19.80;99.90;;;;;;4996465;28;20038;-76
2022/05/08 02:30:33;;;;;;;0.65;0.30;;;19.80;99.90;;;;;;4995334;28;20022;-74
2022/05/08 02:33:06;;;;;;;2.17;0.65;;;19.90;99.90;;;;;;4996626;28;20382;-74
2022/05/08 02:35:34;;;;;;;0.68;0.52;;;19.70;99.70;;;;;;4995535;28;20066;-74
2022/05/08 02:38:11;;;;;;;1.50;0.73;;;19.70;99.90;;;;;;4996570;28;20388;-74
2022/05/08 02:40:39;;;;;;;1.92;0.68;;;19.90;99.90;;;;;;4996579;28;20029;-73
2022/05/08 02:43:10;;;;;;;3.25;0.50;;;19.90;99.80;;;;;;4981286;28;20048;-72
2022/05/08 02:45:37;;;;;;;2.65;0.60;;;19.70;99.80;;;;;;4996210;28;20117;-73
2022/05/08 02:48:04;;;;;;;3.35;0.40;;;19.70;99.90;;;;;;4995161;28;20439;-74
2022/05/08 02:50:32;;;;;;;0.80;0.40;;;20.10;99.90;;;;;;4996471;28;20034;-74
2022/05/08 02:53:00;;;;;;;3.08;0.40;;;20.10;99.90;;;;;;4995992;28;20394;-74
2022/05/08 03:00:58;;;;;;;1.88;0.40;;;20.30;99.70;;;;;;4996284;28;20065;-73
2022/05/08 03:03:25;;;;;;;2.33;0.60;;;20.40;99.90;;;;;;4995809;28;20022;-75
2022/05/08 03:05:52;;;;;;;1.83;1.02;;;20.50;99.90;;;;;;4995442;28;20436;-75
2022/05/08 03:08:20;;;;;;;2.65;0.90;;;20.60;99.90;;;;;;4996740;28;20030;-75
2022/05/08 03:13:39;;;;;;;2.20;0.50;;;20.70;99.90;;;;;;5000337;28;20037;-75
2022/05/08 03:16:10;;;;;;;0.75;0.35;;;20.60;99.30;;;;;;4995140;28;20030;-75
2022/05/08 03:18:41;;;;;;;1.55;0.50;;;20.60;99.80;;;;;;4996538;28;20033;-75
2022/05/08 03:21:10;;;;;;;2.55;0.70;;;20.70;98.80;;;;;;4996297;28;20022;-75
2022/05/08 03:23:38;;;;;;;2.45;0.60;;;20.40;99.20;;;;;;4994603;28;20122;-75
2022/05/08 03:26:07;;;;;;;2.17;0.47;;;20.50;99.90;;;;;;4994921;28;20023;-74
2022/05/08 03:28:36;;;;;;;0.63;0.50;;;20.60;99.90;;;;;;4995696;28;20471;-75
2022/05/08 03:31:03;;;;;;;2.88;0.80;;;20.60;99.70;;;;;;4996016;28;20046;-74
2022/05/08 03:33:32;;;;;;;3.30;0.70;;;20.70;99.40;;;;;;4995008;28;20026;-76
2022/05/08 03:36:00;;;;;;;2.05;0.60;;;20.60;98.70;;;;;;4994828;28;20210;-75
2022/05/08 03:38:27;;;;;;;2.70;0.50;;;20.50;99.90;;;;;;4996282;28;20390;-74
2022/05/08 03:40:56;;;;;;;2.17;0.90;;;20.70;99.90;;;;;;4996524;28;20073;-74
2022/05/08 03:43:23;;;;;;;4.18;0.50;;;20.90;99.90;;;;;;4995735;28;20018;-75
2022/05/08 03:45:51;;;;;;;1.80;0.40;;;21.00;99.50;;;;;;4995247;28;20102;-75
2022/05/08 03:48:20;;;;;;;4.47;0.60;;;20.90;99.90;;;;;;4995398;28;20459;-75
2022/05/08 03:50:47;;;;;;;2.90;0.70;;;20.90;99.90;;;;;;4995304;28;20031;-73
2022/05/08 03:53:18;;;;;;;3.75;0.85;;;21.00;99.90;;;;;;4993650;28;20027;-74
2022/05/08 03:55:45;;;;;;;3.45;0.90;;;20.80;99.50;;;;;;4998555;28;20384;-73
2022/05/08 03:58:13;;;;;;;1.08;0.40;;;20.90;99.10;;;;;;4995848;28;20432;-74
2022/05/08 04:00:46;;;;;;;1.95;0.63;;;20.60;98.90;;;;;;4995126;28;20538;-72
2022/05/08 04:03:13;;;;;;;1.85;0.50;;;20.60;99.90;;;;;;4994622;28;20023;-73
2022/05/08 04:05:40;;;;;;;2.28;0.40;;;20.70;99.90;;;;;;4994142;28;20038;-72
2022/05/08 04:08:08;;;;;;;0.93;0.35;;;20.90;99.90;;;;;;4993171;28;20026;-72
2022/05/08 04:10:35;;;;;;;2.58;0.52;;;20.90;98.20;;;;;;4994420;28;20022;-75
2022/05/08 04:13:03;;;;;;;1.80;0.50;;;20.70;98.90;;;;;;4993288;28;20058;-75
2022/05/08 04:18:16;;;;;;;2.83;0.70;;;20.70;98.20;;;;;;4994453;28;20395;-75
2022/05/08 04:20:43;;;;;;;1.58;0.40;;;20.80;99.20;;;;;;4994370;28;20392;-75
2022/05/08 04:25:56;;;;;;;2.42;0.50;;;20.80;98.90;;;;;;4994537;28;20045;-75
2022/05/08 04:28:23;;;;;;;4.43;0.63;;;20.80;99.90;;;;;;4992945;28;20069;-75
2022/05/08 04:30:51;;;;;;;2.63;0.40;;;20.90;99.90;;;;;;4994077;28;20132;-75
2022/05/08 04:33:18;;;;;;;1.65;0.40;;;20.80;99.90;;;;;;4992877;28;20129;-78
2022/05/08 04:35:46;;;;;;;2.05;0.80;;;20.70;99.90;;;;;;4994269;28;20026;-76
2022/05/08 04:38:13;;;;;;;3.35;0.65;;;20.70;99.90;;;;;;4993915;28;20131;-75
2022/05/08 04:40:41;;;;;;;2.95;0.70;;;20.60;99.90;;;;;;4993952;28;20144;-76
2022/05/08 04:43:08;;;;;;;1.45;0.60;;;20.40;99.90;;;;;;4993994;28;20045;-76
2022/05/08 04:45:36;;;;;;;5.20;0.98;;;20.30;99.90;;;;;;4993916;28;20015;-76
2022/05/08 04:48:03;;;;;;;1.77;0.40;;;20.20;99.90;;;;;;4994153;28;20023;-78
2022/05/08 04:50:34;;;;;;;1.35;0.50;;;20.00;99.90;;;;;;4993110;28;20054;-79
2022/05/08 04:53:02;;;;;;;1.80;0.35;;;19.90;99.90;;;;;;4996365;28;20030;-79
2022/05/08 04:55:29;;;;;;;2.47;0.38;;;19.80;99.90;;;;;;4995423;28;20081;-80
2022/05/08 04:57:57;;;;;;;1.88;0.65;;;19.80;99.90;;;;;;4995570;28;20022;-79
2022/05/08 05:00:25;;;;;;;2.00;0.50;;;19.70;99.90;;;;;;4993911;28;20042;-78
2022/05/08 05:02:53;;;;;;;2.80;0.55;;;19.60;99.90;;;;;;4995298;28;20044;-78
2022/05/08 05:05:20;;;;;;;2.35;0.70;;;19.50;99.90;;;;;;4994471;28;20054;-79
2022/05/08 05:07:48;;;;;;;0.93;0.40;;;19.30;99.90;;;;;;4995333;28;20062;-77
2022/05/08 05:10:15;;;;;;;3.40;0.60;;;19.30;99.90;;;;;;4998785;28;20410;-77
2022/05/08 05:12:43;;;;;;;1.90;0.50;;;19.30;99.90;;;;;;4993736;28;20080;-78
2022/05/08 05:15:11;;;;;;;2.55;0.75;;;19.40;99.90;;;;;;4993988;28;20030;-77
2022/05/08 05:17:39;;;;;;;0.68;0.30;;;19.30;99.90;;;;;;4993509;28;20038;-76
2022/05/08 05:20:11;;;;;;;4.05;0.60;;;19.20;99.90;;;;;;4992344;28;20402;-76
2022/05/08 05:22:39;;;;;;;1.63;0.30;;;19.20;99.90;;;;;;4996223;28;20015;-76
2022/05/08 05:25:06;;;;;;;4.28;0.70;;;19.10;99.90;;;;;;4996226;28;20486;-78
2022/05/08 05:27:34;;;;;;;1.15;0.30;;;19.10;99.90;;;;;;4997627;28;20089;-77
2022/05/08 05:30:03;;;;;;;1.48;0.60;;;19.00;99.90;;;;;;4997997;28;20462;-79
2022/05/08 05:32:30;;;;;;;2.15;0.50;;;19.00;99.90;;;;;;4996434;28;20076;-77
2022/05/08 05:34:57;;;;;;;0.88;0.40;;;18.90;99.90;;;;;;4997548;28;20032;-78
2022/05/08 05:37:25;;;;;;;1.80;0.43;;;18.90;99.90;;;;;;4997598;28;20030;-77
2022/05/08 05:39:52;;;;;;;1.92;0.88;;;18.90;99.90;;;;;;4996026;28;20512;-77
2022/05/08 05:42:19;;;;;;;1.48;0.47;;;19.00;99.90;;;;;;4997585;28;20027;-77
2022/05/08 05:44:47;;;;;;;2.00;0.40;;;18.90;99.90;;;;;;4995883;28;20539;-78
2022/05/08 05:49:59;;;;;;;3.80;0.47;;;18.90;99.90;;;;;;4997283;28;20029;-78
2022/05/08 05:52:27;;;;;;;2.10;0.50;;;18.80;99.90;;;;;;4997965;28;20506;-78
2022/05/08 05:54:55;;;;;;;2.55;0.52;;;18.80;99.90;;;;;;4997695;28;20105;-78
2022/05/08 05:57:22;;;;;;;0.98;0.40;;;18.80;99.90;;;;;;4996962;28;20037;-78
2022/05/08 05:59:49;;;;;;;3.47;0.40;;;18.70;99.90;;;;;;4995787;28;20026;-79
2022/05/08 06:02:17;;;;;;;2.95;0.45;;;18.70;99.90;;;;;;4997004;28;20096;-78
2022/05/08 06:04:44;;;;;;;2.40;0.30;;;18.60;99.90;;;;;;4996589;28;20101;-78
2022/05/08 06:07:11;;;;;;;1.20;0.30;;;18.60;99.90;;;;;;4998075;28;20073;-78
2022/05/08 06:09:39;;;;;;;1.85;0.40;;;18.40;99.90;;;;;;5002648;28;20031;-79
2022/05/08 06:12:07;;;;;;;1.63;0.30;;;18.40;99.90;;;;;;4998568;28;20029;-78
2022/05/08 06:14:34;;;;;;;1.77;0.32;;;18.40;99.90;;;;;;4997394;28;20027;-78
2022/05/08 06:17:02;;;;;;;3.13;0.40;;;18.30;99.90;;;;;;4996922;28;20027;-79
2022/05/08 06:19:31;;;;;;;1.45;0.45;;;18.20;99.90;;;;;;4999516;28;20084;-78
2022/05/08 06:21:59;;;;;;;2.50;0.57;;;18.20;99.90;;;;;;4997424;28;20026;-79
2022/05/08 06:24:28;;;;;;;2.28;0.50;;;18.20;99.90;;;;;;5000532;28;20081;-78
2022/05/08 06:26:56;;;;;;;1.75;0.47;;;18.10;99.90;;;;;;4996718;28;20025;-77
2022/05/08 06:29:24;;;;;;;2.22;0.50;;;18.00;99.90;;;;;;4998046;28;20018;-78
2022/05/08 06:31:52;;;;;;;1.67;0.40;;;18.00;99.90;;;;;;4998255;28;20037;-77
2022/05/08 06:34:19;;;;;;;0.93;0.30;;;18.00;99.90;;;;;;4996922;28;20029;-79
2022/05/08 06:36:47;;;;;;;1.30;0.20;;;17.90;99.90;;;;;;4999001;28;20453;-80
2022/05/08 06:39:14;;;;;;;2.75;0.45;;;17.80;99.90;;;;;;4998924;28;20533;-81
2022/05/08 06:41:42;;;;;;;4.20;0.82;;;17.70;99.90;;;;;;4999233;28;20035;-81
2022/05/08 06:44:09;;;;;;;1.95;0.60;;;17.60;99.90;;;;;;4997383;28;20026;-81
2022/05/08 06:46:36;;;;;;;2.72;0.60;;;17.50;99.90;;;;;;4999167;28;20117;-81
2022/05/08 06:49:05;;;;;;;3.15;0.90;;;17.40;99.90;;;;;;4996932;28;20084;-75
2022/05/08 06:51:34;;;;;;;1.52;0.50;;;17.30;99.90;;;;;;4998620;28;20033;-78
2022/05/08 06:54:02;;;;;;;1.17;0.60;;;17.20;99.90;;;;;;4997848;28;20105;-76
2022/05/08 06:56:34;;;;;;;1.17;0.50;;;17.10;99.90;;;;;;4996627;28;20371;-78
2022/05/08 07:01:49;;;;;;;0.73;0.52;;;16.80;99.90;;;;;;4997972;28;20021;-78
2022/05/08 07:04:16;;;;;;;1.52;0.57;;;16.70;99.90;;;;;;4996815;28;20414;-77
2022/05/08 07:06:43;;;;;;;0.98;0.50;;;16.70;99.90;;;;;;4997306;28;20045;-78
2022/05/08 07:09:13;;;;;;;2.45;0.52;;;16.60;99.90;;;;;;4997018;28;20054;-77
2022/05/08 07:11:41;;;;;;;1.10;0.57;;;16.50;99.90;;;;;;4997002;28;20029;-78
2022/05/08 07:14:08;;;;;;;1.55;0.80;;;16.50;99.90;;;;;;4995782;28;20101;-77
2022/05/08 07:16:36;;;;;;;1.40;0.57;;;16.40;99.90;;;;;;4995029;28;20054;-78
2022/05/08 07:19:03;;;;;;;1.33;0.70;;;16.20;99.90;;;;;;4995116;28;20114;-77
2022/05/08 07:21:30;;;;;;;1.92;1.17;;;16.20;99.90;;;;;;4995121;28;20022;-75
2022/05/08 07:23:58;;;;;;;1.85;0.60;;;16.00;99.90;;;;;;4994858;28;20018;-76
2022/05/08 07:26:25;;;;;;;1.45;0.70;;;15.90;99.90;;;;;;4996717;28;20023;-77
2022/05/08 07:28:52;;;;;;;1.27;0.52;;;15.90;99.90;;;;;;4995012;28;20026;-77
2022/05/08 07:31:20;;;;;;;1.63;0.93;;;15.80;99.90;;;;;;4996637;28;20031;-76
2022/05/08 07:36:12;;;;;;;2.00;0.90;;;15.70;99.90;;;;;;4995743;28;20041;-75
2022/05/08 07:36:35;;;;;;;3.33;2.95;;;15.60;99.90;;;;;;4996846;28;20033;-77
2022/05/08 07:39:02;;;;;;;4.95;1.92;;;15.50;99.90;;;;;;4994206;28;20553;-77
2022/05/08 07:41:30;;;;;;;1.88;0.90;;;15.50;99.90;;;;;;4995235;28;20161;-78
2022/05/08 07:43:57;;;;;;;3.25;1.42;;;15.40;99.90;;;;;;4995229;28;20391;-77
2022/05/08 07:46:25;;;;;;;3.05;1.60;;;15.30;99.90;;;;;;4995269;28;20030;-77
2022/05/08 07:48:53;;;;;;;2.45;1.33;;;15.30;99.90;;;;;;4995301;28;20391;-77
2022/05/08 07:51:21;;;;;;;3.60;1.40;;;15.20;99.90;;;;;;4996048;28;20483;-79
2022/05/08 07:53:48;;;;;;;5.45;2.00;;;15.10;99.90;;;;;;5001097;28;20479;-82
2022/05/08 07:56:15;;;;;;;2.60;1.30;;;15.10;99.90;;;;;;4997708;28;20018;-80
2022/05/08 07:58:43;;;;;;;3.42;1.90;;;15.00;99.90;;;;;;4997789;28;20022;-80
2022/05/08 08:01:10;;;;;;;4.13;2.20;;;15.00;99.90;;;;;;5002249;28;20038;-81
2022/05/08 08:03:38;;;;;;;4.68;2.53;;;15.00;99.90;;;;;;5000222;28;20076;-80
2022/05/08 08:06:05;;;;;;;6.95;2.63;;;15.00;99.90;;;;;;4998576;28;20050;-78
2022/05/08 08:08:33;;;;;;;8.30;4.18;;;14.90;99.90;;;;;;4996972;28;20034;-80
2022/05/08 08:11:03;;;;;;;8.38;5.47;;;14.90;99.90;;;;;;4997956;28;20026;-78
2022/05/08 08:13:31;;;;;;;;;;;14.90;99.90;;;;;;4999568;28;20031;-79
2022/05/08 08:16:01;;;;;;;8.25;5.38;;;14.80;99.90;;;;;;4998130;28;19945;-79
2022/05/08 08:18:28;;;;;;;8.93;5.85;;;14.80;99.90;;;;;;4999272;28;20033;-79
2022/05/08 08:20:56;;;;;;;10.02;6.65;;;14.70;99.90;;;;;;4997442;28;20022;-79
2022/05/08 08:23:26;;;;;;;10.40;6.43;;;14.70;99.90;;;;;;4993987;28;20395;-78
2022/05/08 08:25:54;;;;;;;9.82;6.30;;;14.70;99.90;;;;;;4994189;28;20026;-78
2022/05/08 08:28:21;;;;;;;10.38;5.35;;;14.70;99.90;;;;;;4994553;28;20037;-78
2022/05/08 08:30:49;;;;;;;8.10;5.30;;;14.60;99.90;;;;;;4994598;28;20037;-77
2022/05/08 08:33:16;;;;;;;8.57;5.13;;;14.70;99.90;;;;;;4994886;28;20023;-77
2022/05/08 08:35:44;;;;;;;8.48;6.00;;;14.60;99.90;;;;;;4996448;28;20031;-78
2022/05/08 08:38:11;;;;;;;11.18;8.25;;;14.60;99.90;;;;;;4994551;28;20069;-78
2022/05/08 08:40:41;;;;;;;13.63;9.82;;;14.60;99.90;;;;;;4993457;28;20165;-77
2022/05/08 08:43:11;;;;;;;11.85;7.65;;;14.60;99.90;;;;;;5001930;28;20026;-77
2022/05/08 08:48:28;;;;;;;8.82;5.72;;;14.50;99.90;;;;;;4994558;28;20037;-76
2022/05/08 08:51:00;;;;;;;24.40;7.10;;;14.50;99.90;;;;;;4994455;28;20061;-73
2022/05/08 08:53:28;;;;;;;10.80;7.65;;;14.40;99.90;;;;;;4994480;28;20033;-72
2022/05/08 08:55:57;;;;;;;10.38;7.25;;;14.30;99.90;;;;;;4994188;28;20046;-73
2022/05/08 08:58:24;;;;;;;9.98;6.35;;;14.20;99.90;;;;;;4992976;28;20113;-76
2022/05/08 09:00:52;;;;;;;8.50;5.93;;;14.20;99.90;;;;;;4994702;28;20033;-75
2022/05/08 09:03:29;;;;;;;10.85;6.38;;;14.20;99.90;;;;;;4994956;28;20049;-74
2022/05/08 09:05:58;;;;;;;8.40;6.20;;;14.10;99.90;;;;;;4994514;28;20038;-74
2022/05/08 09:08:33;;;;;;;8.70;5.88;;;14.00;99.90;;;;;;4994248;28;20022;-73
2022/05/08 09:11:00;;;;;;;11.27;7.32;;;13.80;99.90;;;;;;4994325;28;20029;-75
2022/05/08 09:13:34;;;;;;;9.65;6.20;;;13.80;99.90;;;;;;4994171;28;20022;-75
2022/05/08 09:16:07;;;;;;;9.65;6.22;;;13.70;99.90;;;;;;4992909;28;20026;-74
2022/05/08 09:18:48;;;;;;;8.48;5.28;;;13.60;99.90;;;;;;4992837;28;20562;-75
2022/05/08 09:24:14;;;;;;;7.70;5.63;;;13.50;99.90;;;;;;4994743;28;20045;-74
2022/05/08 09:26:42;;;;;;;8.02;5.25;;;13.50;99.90;;;;;;4994381;28;20491;-75
2022/05/08 09:29:24;;;;;;;9.45;5.38;;;13.60;99.90;;;;;;4993975;28;20033;-74
2022/05/08 09:31:51;;;;;;;8.18;5.90;;;13.60;99.90;;;;;;4993530;28;20041;-74
2022/05/08 09:34:18;;;;;;;8.65;5.07;;;13.60;99.90;;;;;;4994566;28;20513;-74
2022/05/08 09:36:47;;;;;;;9.95;5.78;;;13.50;99.90;;;;;;4995292;28;20533;-74
2022/05/08 09:39:21;;;;;;;8.52;5.03;;;13.50;99.90;;;;;;4993179;28;20038;-75
2022/05/08 09:41:48;;;;;;;8.68;5.15;;;13.50;99.90;;;;;;4993793;28;20031;-75
2022/05/08 09:44:18;;;;;;;8.80;5.63;;;13.50;99.90;;;;;;4994335;28;20023;-75
2022/05/08 09:46:48;;;;;;;8.82;5.80;;;13.50;99.90;;;;;;4992778;28;20101;-74
2022/05/08 09:49:23;;;;;;;8.80;6.05;;;13.40;99.90;;;;;;4994108;28;20022;-76
2022/05/08 09:51:52;;;;;;;10.32;6.40;;;13.40;99.90;;;;;;4994414;28;20487;-76
2022/05/08 09:54:20;;;;;;;8.82;5.70;;;13.40;99.90;;;;;;4993854;28;20022;-76
2022/05/08 09:56:49;;;;;;;7.30;5.65;;;13.40;99.90;;;;;;4993993;28;20026;-75
2022/05/08 09:59:16;;;;;;;9.68;6.63;;;13.30;99.90;;;;;;4992923;28;20117;-75
2022/05/08 10:01:44;;;;;;;10.65;6.95;;;13.30;99.90;;;;;;4992391;28;20018;-76
2022/05/08 10:04:12;;;;;;;11.25;7.53;;;13.30;99.90;;;;;;4993639;28;20022;-76
2022/05/08 10:06:40;;;;;;;11.05;6.90;;;13.30;99.90;;;;;;4993804;28;20114;-76
2022/05/08 10:14:45;;;;;;;9.98;7.57;;;13.20;99.90;;;;;;4997195;28;20073;-73
2022/05/08 10:17:13;;;;;;;10.50;6.82;;;13.20;99.90;;;;;;4995824;28;20026;-73
2022/05/08 10:19:40;;;;;;;11.93;7.40;;;13.20;99.90;;;;;;4995650;28;20077;-74
2022/05/08 10:22:13;;;;;;;9.00;6.90;;;13.20;99.90;;;;;;4996586;28;20026;-74
2022/05/08 10:24:53;;;;;;;10.77;6.88;;;13.20;99.90;;;;;;4996318;28;20109;-74
2022/05/08 10:27:33;;;;;;;9.95;6.40;;;13.20;99.90;;;;;;4996951;28;20041;-74
2022/05/08 10:30:03;;;;;;;12.25;6.25;;;13.20;99.90;;;;;;4997514;28;20030;-75
2022/05/08 10:32:33;;;;;;;10.23;5.93;;;13.20;99.90;;;;;;4996155;28;20487;-75
2022/05/08 10:35:23;;;;;;;10.63;6.20;;;13.10;99.90;;;;;;4996104;28;20026;-74
2022/05/08 10:37:53;;;;;;;12.23;6.43;;;13.10;99.90;;;;;;4997149;28;20756;-74
2022/05/08 10:40:23;;;;;;;10.40;6.25;;;13.10;99.90;;;;;;4997813;28;20089;-75
2022/05/08 10:42:55;;;;;;;8.27;5.50;;;13.10;99.90;;;;;;4998249;28;20471;-75
2022/05/08 10:45:36;;;;;;;10.38;6.05;;;13.00;99.90;;;;;;4995760;28;20501;-75
2022/05/08 10:48:15;;;;;;;10.52;5.85;;;13.00;99.90;;;;;;4996870;28;20109;-75
2022/05/08 10:50:49;;;;;;;9.18;5.50;;;12.90;99.90;;;;;;4995985;28;20487;-75
2022/05/08 10:53:36;;;;;;;11.15;6.32;;;12.90;99.90;;;;;;4996944;28;20018;-75
2022/05/08 10:56:11;;;;;;;10.07;5.85;;;12.90;99.90;;;;;;4996228;28;20030;-75
2022/05/08 10:58:50;;;;;;;9.02;6.00;;;12.80;99.90;;;;;;4996180;28;20019;-75
2022/05/08 11:01:17;;;;;;;8.68;5.47;;;12.80;99.90;;;;;;4996073;28;20081;-74
2022/05/08 11:03:45;;;;;;;11.27;5.80;;;12.90;99.90;;;;;;4995073;28;20080;-74
2022/05/08 11:06:20;;;;;;;7.50;4.97;;;12.90;99.90;;;;;;4995097;28;20042;-75
2022/05/08 11:08:48;;;;;;;10.18;5.97;;;12.80;99.90;;;;;;4995204;28;20431;-75
2022/05/08 11:11:16;;;;;;;9.77;6.00;;;12.80;99.90;;;;;;4997058;28;20097;-75
2022/05/08 11:13:50;;;;;;;7.03;5.00;;;12.80;99.90;;;;;;4996342;28;20088;-75
2022/05/08 11:16:37;;;;;;;10.57;5.22;;;12.80;99.90;;;;;;4996614;28;20434;-75
2022/05/08 11:19:05;;;;;;;8.10;5.07;;;12.80;99.90;;;;;;4996171;28;20050;-74
2022/05/08 11:21:33;;;;;;;9.13;5.03;;;12.70;99.90;;;;;;4994341;28;20022;-74
2022/05/08 11:24:03;;;;;;;9.80;5.50;;;12.70;99.90;;;;;;4994014;28;20025;-76
2022/05/08 11:26:35;;;;;;;9.73;5.20;;;12.70;99.90;;;;;;4995551;28;20101;-75
2022/05/08 11:29:04;;;;;;;8.23;5.20;;;12.70;99.90;;;;;;4995500;28;20029;-75
2022/05/08 11:31:35;;;;;;;9.48;5.80;;;12.60;99.90;;;;;;4995306;28;20029;-75
2022/05/08 11:36:47;;;;;;;8.85;5.22;;;12.70;99.90;;;;;;4995490;28;20029;-75
2022/05/08 11:39:19;;;;;;;7.82;5.28;;;12.70;99.90;;;;;;4995478;28;20068;-74
2022/05/08 11:41:51;;;;;;;8.25;5.25;;;12.80;99.90;;;;;;5001729;28;20026;-74
2022/05/08 11:44:23;;;;;;;7.20;4.97;;;12.80;99.90;;;;;;4995618;28;20368;-74
2022/05/08 11:46:54;;;;;;;6.57;4.35;;;12.90;99.90;;;;;;4994333;28;20478;-73
2022/05/08 11:49:31;;;;;;;7.07;4.55;;;13.10;99.90;;;;;;4995537;28;20395;-74
2022/05/08 11:52:01;;;;;;;7.65;4.38;;;13.30;99.90;;;;;;4995101;28;20027;-74
2022/05/08 11:54:32;;;;;;;6.90;4.60;;;13.40;99.90;;;;;;4994793;28;20113;-74
2022/05/08 11:57:19;;;;;;;8.93;5.60;;;13.40;99.90;;;;;;4995000;28;20026;-73
2022/05/08 11:59:48;;;;;;;8.30;4.93;;;13.40;99.90;;;;;;4994824;28;20037;-74
2022/05/08 12:02:16;;;;;;;9.20;5.40;;;13.50;99.90;;;;;;4994889;28;20422;-74
2022/05/08 12:05:03;;;;;;;8.20;4.88;;;13.60;99.90;;;;;;4993274;28;20072;-74
2022/05/08 12:07:39;;;;;;;6.63;4.50;;;13.70;99.90;;;;;;4994658;28;20029;-74
2022/05/08 12:10:09;;;;;;;7.75;4.95;;;13.70;99.90;;;;;;4993445;28;20022;-74
2022/05/08 12:12:38;;;;;;;7.40;5.50;;;13.80;99.90;;;;;;4993486;28;20018;-74
2022/05/08 12:15:10;;;;;;;7.82;4.55;;;13.80;99.90;;;;;;4994541;28;20014;-74
2022/05/08 12:17:43;;;;;;;9.52;5.88;;;13.80;99.90;;;;;;4993171;28;20060;-74
2022/05/08 12:20:12;;;;;;;10.15;6.68;;;13.90;99.90;;;;;;4994450;28;20408;-74
2022/05/08 12:22:41;;;;;;;12.02;7.55;;;13.90;99.90;;;;;;4997071;28;20026;-74
2022/05/08 12:25:09;;;;;;;8.10;6.07;;;13.80;99.90;;;;;;4995239;28;20018;-74
2022/05/08 12:27:36;;;;;;;6.60;5.13;;;13.80;99.90;;;;;;4993855;28;20475;-74
2022/05/08 12:30:11;;;;;;;8.48;6.03;;;13.90;99.90;;;;;;4993501;28;20026;-74
2022/05/08 12:32:39;;;;;;;8.40;5.30;;;13.80;99.90;;;;;;4993744;28;20105;-74
2022/05/08 12:35:07;;;;;;;9.45;5.30;;;13.80;99.90;;;;;;4993688;28;20034;-74
2022/05/08 12:37:34;;;;;;;7.65;5.75;;;13.80;99.90;;;;;;4994597;28;20165;-74
2022/05/08 12:40:02;;;;;;;8.63;5.05;;;13.70;99.90;;;;;;4995205;28;20177;-73
2022/05/08 12:42:29;;;;;;;10.02;5.00;;;13.60;99.90;;;;;;4999259;28;20029;-73
2022/05/08 12:44:56;;;;;;;10.40;5.18;;;13.60;99.90;;;;;;5000550;28;20106;-74
2022/05/08 12:47:24;;;;;;;8.68;5.75;;;13.50;99.90;;;;;;4994574;28;20507;-74
2022/05/08 12:49:53;;;;;;;8.43;5.10;;;13.40;99.90;;;;;;4994428;28;20018;-74
2022/05/08 12:52:22;;;;;;;8.88;5.68;;;13.30;99.90;;;;;;4994567;28;20034;-73
2022/05/08 12:54:49;;;;;;;9.82;6.63;;;13.30;99.90;;;;;;4996468;28;20080;-75
2022/05/08 13:00:04;;;;;;;14.50;6.95;;;13.50;99.90;;;;;;4994180;28;20122;-73
2022/05/08 13:02:31;;;;;;;11.15;6.85;;;13.70;99.90;;;;;;4992939;28;20027;-71
2022/05/08 13:04:58;;;;;;;12.73;6.80;;;13.80;99.90;;;;;;4994006;28;20419;-72
2022/05/08 13:07:26;;;;;;;8.85;5.72;;;13.80;99.90;;;;;;4992798;28;20034;-73
2022/05/08 13:09:53;;;;;;;7.55;5.07;;;13.90;99.90;;;;;;4993870;28;20475;-73
2022/05/08 13:12:20;;;;;;;11.63;7.10;;;13.90;99.90;;;;;;4994062;28;20023;-73
2022/05/08 13:14:48;;;;;;;10.30;6.35;;;14.00;99.90;;;;;;4992794;28;20023;-74
2022/05/08 13:17:15;;;;;;;8.95;5.13;;;14.00;99.90;;;;;;4994127;28;20026;-72
2022/05/08 13:19:42;;;;;;;6.80;4.50;;;14.10;99.90;;;;;;4994037;28;20030;-73
2022/05/08 13:22:10;;;;;;;6.35;3.92;;;14.10;99.90;;;;;;4993896;28;20022;-73
2022/05/08 13:24:38;;;;;;;8.73;4.70;;;14.20;99.90;;;;;;4992696;28;20092;-72
2022/05/08 13:27:06;;;;;;;6.40;3.88;;;14.20;99.90;;;;;;4994459;28;20025;-72
2022/05/08 13:29:34;;;;;;;6.13;4.07;;;14.20;99.90;;;;;;4992718;28;20022;-72
2022/05/08 13:32:01;;;;;;;8.38;4.00;;;14.20;99.90;;;;;;4992461;28;20029;-73